sensor_id;sensor_type;location;lat;lon;timestamp;temperature;humidity
9393;DHT22;4736;52.508;13.422;2024-02-14T00:02:39;3.00;76.50
9393;DHT22;4736;52.508;13.422;2024-02-14T00:05:42;3.00;76.50
9393;DHT22;4736;52.508;13.422;2024-02-14T00:08:45;3.00;76.50
9393;DHT22;4736;52.508;13.422;2024-02-14T00:11:49;3.00;76.60
9393;DHT22;4736;52.508;13.422;2024-02-14T00:14:53;3.10;76.60
9393;DHT22;4736;52.508;13.422;2024-02-14T00:17:56;3.10;76.40
9393;DHT22;4736;52.508;13.422;2024-02-14T00:21:00;3.10;76.30
9393;DHT22;4736;52.508;13.422;2024-02-14T00:24:03;3.10;76.10
9393;DHT22;4736;52.508;13.422;2024-02-14T00:27:09;3.10;76.10
9393;DHT22;4736;52.508;13.422;2024-02-14T00:30:15;3.00;76.30
9393;DHT22;4736;52.508;13.422;2024-02-14T00:33:19;3.00;76.30
9393;DHT22;4736;52.508;13.422;2024-02-14T00:36:22;2.90;76.70
9393;DHT22;4736;52.508;13.422;2024-02-14T00:39:26;2.90;76.70
9393;DHT22;4736;52.508;13.422;2024-02-14T00:42:29;2.90;76.70
9393;DHT22;4736;52.508;13.422;2024-02-14T00:45:34;2.90;76.70
9393;DHT22;4736;52.508;13.422;2024-02-14T00:48:37;3.00;76.70
9393;DHT22;4736;52.508;13.422;2024-02-14T00:51:40;3.00;76.70
9393;DHT22;4736;52.508;13.422;2024-02-14T00:54:43;3.00;76.70
9393;DHT22;4736;52.508;13.422;2024-02-14T00:57:47;3.00;76.70
9393;DHT22;4736;52.508;13.422;2024-02-14T01:00:51;2.90;76.60
9393;DHT22;4736;52.508;13.422;2024-02-14T01:03:56;2.90;76.80
9393;DHT22;4736;52.508;13.422;2024-02-14T01:06:59;2.90;76.90
9393;DHT22;4736;52.508;13.422;2024-02-14T01:10:03;2.90;77.00
9393;DHT22;4736;52.508;13.422;2024-02-14T01:13:06;2.90;77.00
9393;DHT22;4736;52.508;13.422;2024-02-14T01:16:10;2.90;76.90
9393;DHT22;4736;52.508;13.422;2024-02-14T01:19:14;3.00;76.70
9393;DHT22;4736;52.508;13.422;2024-02-14T01:22:17;2.90;76.70
9393;DHT22;4736;52.508;13.422;2024-02-14T01:25:20;3.00;76.60
9393;DHT22;4736;52.508;13.422;2024-02-14T01:28:23;2.90;76.60
9393;DHT22;4736;52.508;13.422;2024-02-14T01:31:28;3.00;76.40
9393;DHT22;4736;52.508;13.422;2024-02-14T01:34:32;3.00;76.40
9393;DHT22;4736;52.508;13.422;2024-02-14T01:37:35;2.90;76.50
9393;DHT22;4736;52.508;13.422;2024-02-14T01:40:42;2.80;76.80
9393;DHT22;4736;52.508;13.422;2024-02-14T01:43:46;2.90;76.70
9393;DHT22;4736;52.508;13.422;2024-02-14T01:46:51;2.90;76.70
9393;DHT22;4736;52.508;13.422;2024-02-14T01:49:54;2.90;76.70
9393;DHT22;4736;52.508;13.422;2024-02-14T01:52:58;2.90;76.80
9393;DHT22;4736;52.508;13.422;2024-02-14T01:56:02;3.00;76.30
9393;DHT22;4736;52.508;13.422;2024-02-14T01:59:06;3.00;76.50
9393;DHT22;4736;52.508;13.422;2024-02-14T02:02:11;2.90;76.60
9393;DHT22;4736;52.508;13.422;2024-02-14T02:05:15;2.90;76.60
9393;DHT22;4736;52.508;13.422;2024-02-14T02:08:18;2.90;76.70
9393;DHT22;4736;52.508;13.422;2024-02-14T02:11:22;2.90;76.50
9393;DHT22;4736;52.508;13.422;2024-02-14T02:14:25;2.90;76.70
9393;DHT22;4736;52.508;13.422;2024-02-14T02:17:30;3.00;76.70
9393;DHT22;4736;52.508;13.422;2024-02-14T02:20:36;2.90;76.70
9393;DHT22;4736;52.508;13.422;2024-02-14T02:23:41;3.10;76.30
9393;DHT22;4736;52.508;13.422;2024-02-14T02:26:47;3.10;76.00
9393;DHT22;4736;52.508;13.422;2024-02-14T02:29:50;3.10;76.10
9393;DHT22;4736;52.508;13.422;2024-02-14T02:32:54;3.00;76.20
9393;DHT22;4736;52.508;13.422;2024-02-14T02:35:57;3.10;76.10
9393;DHT22;4736;52.508;13.422;2024-02-14T02:39:03;3.10;76.10
9393;DHT22;4736;52.508;13.422;2024-02-14T02:42:07;3.10;76.20
9393;DHT22;4736;52.508;13.422;2024-02-14T02:45:12;3.00;76.20
9393;DHT22;4736;52.508;13.422;2024-02-14T02:48:15;3.10;76.10
9393;DHT22;4736;52.508;13.422;2024-02-14T02:51:19;3.10;76.10
9393;DHT22;4736;52.508;13.422;2024-02-14T02:54:23;3.10;75.70
9393;DHT22;4736;52.508;13.422;2024-02-14T02:57:27;3.10;75.90
9393;DHT22;4736;52.508;13.422;2024-02-14T03:00:30;3.00;76.10
9393;DHT22;4736;52.508;13.422;2024-02-14T03:03:33;2.90;76.30
9393;DHT22;4736;52.508;13.422;2024-02-14T03:06:38;2.90;76.30
9393;DHT22;4736;52.508;13.422;2024-02-14T03:09:42;2.90;76.50
9393;DHT22;4736;52.508;13.422;2024-02-14T03:12:46;2.80;76.60
9393;DHT22;4736;52.508;13.422;2024-02-14T03:15:50;2.90;76.80
9393;DHT22;4736;52.508;13.422;2024-02-14T03:18:53;2.80;77.00
9393;DHT22;4736;52.508;13.422;2024-02-14T03:21:57;2.80;76.90
9393;DHT22;4736;52.508;13.422;2024-02-14T03:25:02;2.90;76.90
9393;DHT22;4736;52.508;13.422;2024-02-14T03:28:06;2.80;76.90
9393;DHT22;4736;52.508;13.422;2024-02-14T03:31:10;2.80;76.80
9393;DHT22;4736;52.508;13.422;2024-02-14T03:34:17;2.80;76.90
9393;DHT22;4736;52.508;13.422;2024-02-14T03:37:21;2.80;77.00
9393;DHT22;4736;52.508;13.422;2024-02-14T03:40:26;2.80;77.20
9393;DHT22;4736;52.508;13.422;2024-02-14T03:43:32;2.80;77.20
9393;DHT22;4736;52.508;13.422;2024-02-14T03:46:35;2.80;77.00
9393;DHT22;4736;52.508;13.422;2024-02-14T03:49:38;2.90;77.00
9393;DHT22;4736;52.508;13.422;2024-02-14T03:52:42;2.80;77.00
9393;DHT22;4736;52.508;13.422;2024-02-14T03:55:47;2.80;76.90
9393;DHT22;4736;52.508;13.422;2024-02-14T03:58:51;2.80;76.90
9393;DHT22;4736;52.508;13.422;2024-02-14T04:01:54;2.90;76.80
9393;DHT22;4736;52.508;13.422;2024-02-14T04:04:59;2.90;76.90
9393;DHT22;4736;52.508;13.422;2024-02-14T04:08:04;2.90;76.90
9393;DHT22;4736;52.508;13.422;2024-02-14T04:11:13;2.90;76.90
9393;DHT22;4736;52.508;13.422;2024-02-14T04:14:16;2.80;76.70
9393;DHT22;4736;52.508;13.422;2024-02-14T04:17:20;2.80;77.00
9393;DHT22;4736;52.508;13.422;2024-02-14T04:20:23;2.90;77.00
9393;DHT22;4736;52.508;13.422;2024-02-14T04:23:27;3.00;76.90
9393;DHT22;4736;52.508;13.422;2024-02-14T04:26:31;3.00;76.60
9393;DHT22;4736;52.508;13.422;2024-02-14T04:29:34;3.00;76.70
9393;DHT22;4736;52.508;13.422;2024-02-14T04:32:38;2.90;76.90
9393;DHT22;4736;52.508;13.422;2024-02-14T04:35:41;3.00;76.90
9393;DHT22;4736;52.508;13.422;2024-02-14T04:38:44;3.00;76.70
9393;DHT22;4736;52.508;13.422;2024-02-14T04:41:49;3.10;76.30
9393;DHT22;4736;52.508;13.422;2024-02-14T04:45:03;3.10;76.50
9393;DHT22;4736;52.508;13.422;2024-02-14T04:48:07;3.10;76.60
9393;DHT22;4736;52.508;13.422;2024-02-14T04:51:12;3.10;76.50
9393;DHT22;4736;52.508;13.422;2024-02-14T04:54:19;3.10;76.30
9393;DHT22;4736;52.508;13.422;2024-02-14T04:57:24;3.10;76.20
9393;DHT22;4736;52.508;13.422;2024-02-14T05:00:28;3.30;75.90
9393;DHT22;4736;52.508;13.422;2024-02-14T05:03:31;3.30;76.00
9393;DHT22;4736;52.508;13.422;2024-02-14T05:06:35;3.20;76.00
9393;DHT22;4736;52.508;13.422;2024-02-14T05:09:40;3.30;75.90
9393;DHT22;4736;52.508;13.422;2024-02-14T05:12:45;3.30;76.00
9393;DHT22;4736;52.508;13.422;2024-02-14T05:15:48;3.30;75.90
9393;DHT22;4736;52.508;13.422;2024-02-14T05:18:53;3.30;75.80
9393;DHT22;4736;52.508;13.422;2024-02-14T05:21:56;3.30;76.00
9393;DHT22;4736;52.508;13.422;2024-02-14T05:24:59;3.30;76.10
9393;DHT22;4736;52.508;13.422;2024-02-14T05:28:04;3.30;76.10
9393;DHT22;4736;52.508;13.422;2024-02-14T05:31:07;3.30;76.20
9393;DHT22;4736;52.508;13.422;2024-02-14T05:34:11;3.30;76.30
9393;DHT22;4736;52.508;13.422;2024-02-14T05:37:14;3.20;76.40
9393;DHT22;4736;52.508;13.422;2024-02-14T05:40:18;3.20;76.60
9393;DHT22;4736;52.508;13.422;2024-02-14T05:43:22;3.20;76.70
9393;DHT22;4736;52.508;13.422;2024-02-14T05:46:26;3.30;76.60
9393;DHT22;4736;52.508;13.422;2024-02-14T05:49:29;3.30;76.60
9393;DHT22;4736;52.508;13.422;2024-02-14T05:52:33;3.30;76.50
9393;DHT22;4736;52.508;13.422;2024-02-14T05:55:36;3.30;76.50
9393;DHT22;4736;52.508;13.422;2024-02-14T05:58:40;3.30;76.50
9393;DHT22;4736;52.508;13.422;2024-02-14T06:01:44;3.30;76.60
9393;DHT22;4736;52.508;13.422;2024-02-14T06:04:47;3.30;76.60
9393;DHT22;4736;52.508;13.422;2024-02-14T06:07:50;3.20;76.70
9393;DHT22;4736;52.508;13.422;2024-02-14T06:10:53;3.30;76.60
9393;DHT22;4736;52.508;13.422;2024-02-14T06:13:57;3.20;76.70
9393;DHT22;4736;52.508;13.422;2024-02-14T06:17:01;3.30;76.60
9393;DHT22;4736;52.508;13.422;2024-02-14T06:20:05;3.30;76.70
9393;DHT22;4736;52.508;13.422;2024-02-14T06:23:10;3.30;76.60
9393;DHT22;4736;52.508;13.422;2024-02-14T06:26:13;3.30;76.50
9393;DHT22;4736;52.508;13.422;2024-02-14T06:29:17;3.30;76.30
9393;DHT22;4736;52.508;13.422;2024-02-14T06:32:21;3.40;76.20
9393;DHT22;4736;52.508;13.422;2024-02-14T06:35:24;3.40;76.30
9393;DHT22;4736;52.508;13.422;2024-02-14T06:38:27;3.40;76.30
9393;DHT22;4736;52.508;13.422;2024-02-14T06:41:30;3.50;76.20
9393;DHT22;4736;52.508;13.422;2024-02-14T06:44:35;3.50;76.10
9393;DHT22;4736;52.508;13.422;2024-02-14T06:47:38;3.40;76.50
9393;DHT22;4736;52.508;13.422;2024-02-14T06:50:41;3.50;76.50
9393;DHT22;4736;52.508;13.422;2024-02-14T06:53:45;3.50;76.10
9393;DHT22;4736;52.508;13.422;2024-02-14T06:56:48;3.50;76.30
9393;DHT22;4736;52.508;13.422;2024-02-14T06:59:52;3.60;76.10
9393;DHT22;4736;52.508;13.422;2024-02-14T07:02:55;3.70;76.20
9393;DHT22;4736;52.508;13.422;2024-02-14T07:05:59;3.80;75.90
9393;DHT22;4736;52.508;13.422;2024-02-14T07:09:02;3.80;75.80
9393;DHT22;4736;52.508;13.422;2024-02-14T07:12:05;3.90;75.80
9393;DHT22;4736;52.508;13.422;2024-02-14T07:15:11;3.90;75.80
9393;DHT22;4736;52.508;13.422;2024-02-14T07:18:14;4.00;75.50
9393;DHT22;4736;52.508;13.422;2024-02-14T07:21:28;4.10;75.20
9393;DHT22;4736;52.508;13.422;2024-02-14T07:24:43;4.10;75.00
9393;DHT22;4736;52.508;13.422;2024-02-14T07:27:46;4.20;74.40
9393;DHT22;4736;52.508;13.422;2024-02-14T07:30:55;4.30;74.30
9393;DHT22;4736;52.508;13.422;2024-02-14T07:33:58;4.50;73.50
9393;DHT22;4736;52.508;13.422;2024-02-14T07:37:01;4.50;73.20
9393;DHT22;4736;52.508;13.422;2024-02-14T07:40:05;4.50;73.40
9393;DHT22;4736;52.508;13.422;2024-02-14T07:43:08;4.40;73.60
9393;DHT22;4736;52.508;13.422;2024-02-14T07:46:17;4.50;73.40
9393;DHT22;4736;52.508;13.422;2024-02-14T07:49:21;4.50;73.30
9393;DHT22;4736;52.508;13.422;2024-02-14T07:52:24;4.50;73.20
9393;DHT22;4736;52.508;13.422;2024-02-14T07:55:27;4.50;73.40
9393;DHT22;4736;52.508;13.422;2024-02-14T07:58:30;4.50;73.30
9393;DHT22;4736;52.508;13.422;2024-02-14T08:01:34;4.50;73.60
9393;DHT22;4736;52.508;13.422;2024-02-14T08:04:38;4.60;73.20
9393;DHT22;4736;52.508;13.422;2024-02-14T08:07:41;4.60;73.30
9393;DHT22;4736;52.508;13.422;2024-02-14T08:10:44;4.70;73.20
9393;DHT22;4736;52.508;13.422;2024-02-14T08:13:47;4.70;73.40
9393;DHT22;4736;52.508;13.422;2024-02-14T08:16:51;4.70;73.30
9393;DHT22;4736;52.508;13.422;2024-02-14T08:19:54;4.70;73.50
9393;DHT22;4736;52.508;13.422;2024-02-14T08:22:58;4.90;73.60
9393;DHT22;4736;52.508;13.422;2024-02-14T08:26:01;5.00;73.80
9393;DHT22;4736;52.508;13.422;2024-02-14T08:29:04;5.00;74.30
9393;DHT22;4736;52.508;13.422;2024-02-14T08:32:09;5.10;74.10
9393;DHT22;4736;52.508;13.422;2024-02-14T08:35:12;5.00;74.50
9393;DHT22;4736;52.508;13.422;2024-02-14T08:38:16;5.20;74.20
9393;DHT22;4736;52.508;13.422;2024-02-14T08:41:19;5.20;74.70
9393;DHT22;4736;52.508;13.422;2024-02-14T08:44:22;5.30;74.80
9393;DHT22;4736;52.508;13.422;2024-02-14T08:47:26;5.10;75.90
9393;DHT22;4736;52.508;13.422;2024-02-14T08:50:30;5.20;75.70
9393;DHT22;4736;52.508;13.422;2024-02-14T08:53:33;5.10;75.80
9393;DHT22;4736;52.508;13.422;2024-02-14T08:56:37;5.20;75.90
9393;DHT22;4736;52.508;13.422;2024-02-14T08:59:40;5.30;75.90
9393;DHT22;4736;52.508;13.422;2024-02-14T09:02:48;5.30;75.90
9393;DHT22;4736;52.508;13.422;2024-02-14T09:05:51;5.50;75.80
9393;DHT22;4736;52.508;13.422;2024-02-14T09:08:55;5.50;76.00
9393;DHT22;4736;52.508;13.422;2024-02-14T09:11:59;5.50;76.20
9393;DHT22;4736;52.508;13.422;2024-02-14T09:15:05;5.50;76.70
9393;DHT22;4736;52.508;13.422;2024-02-14T09:18:11;5.50;76.50
9393;DHT22;4736;52.508;13.422;2024-02-14T09:21:14;5.60;76.60
9393;DHT22;4736;52.508;13.422;2024-02-14T09:24:20;5.70;76.50
9393;DHT22;4736;52.508;13.422;2024-02-14T09:27:23;5.60;77.00
9393;DHT22;4736;52.508;13.422;2024-02-14T09:30:26;5.50;77.30
9393;DHT22;4736;52.508;13.422;2024-02-14T09:33:41;5.50;77.80
9393;DHT22;4736;52.508;13.422;2024-02-14T09:36:47;5.70;77.80
9393;DHT22;4736;52.508;13.422;2024-02-14T09:39:51;5.70;77.90
9393;DHT22;4736;52.508;13.422;2024-02-14T09:42:55;5.90;77.90
9393;DHT22;4736;52.508;13.422;2024-02-14T09:46:01;6.00;77.80
9393;DHT22;4736;52.508;13.422;2024-02-14T09:49:06;6.00;77.70
9393;DHT22;4736;52.508;13.422;2024-02-14T09:52:11;6.20;77.70
9393;DHT22;4736;52.508;13.422;2024-02-14T09:55:15;6.20;77.70
9393;DHT22;4736;52.508;13.422;2024-02-14T09:58:19;6.10;78.30
9393;DHT22;4736;52.508;13.422;2024-02-14T10:01:22;6.10;79.00
9393;DHT22;4736;52.508;13.422;2024-02-14T10:04:27;5.90;80.00
9393;DHT22;4736;52.508;13.422;2024-02-14T10:07:39;5.80;80.30
9393;DHT22;4736;52.508;13.422;2024-02-14T10:11:08;5.90;80.50
9393;DHT22;4736;52.508;13.422;2024-02-14T10:14:36;6.00;80.50
9393;DHT22;4736;52.508;13.422;2024-02-14T10:18:04;6.00;80.80
9393;DHT22;4736;52.508;13.422;2024-02-14T10:21:34;6.20;80.40
9393;DHT22;4736;52.508;13.422;2024-02-14T10:25:01;6.30;80.40
9393;DHT22;4736;52.508;13.422;2024-02-14T10:28:29;6.30;80.60
9393;DHT22;4736;52.508;13.422;2024-02-14T10:31:45;6.30;80.50
9393;DHT22;4736;52.508;13.422;2024-02-14T10:34:52;6.40;80.80
9393;DHT22;4736;52.508;13.422;2024-02-14T10:37:58;6.50;80.90
9393;DHT22;4736;52.508;13.422;2024-02-14T10:41:03;6.40;80.80
9393;DHT22;4736;52.508;13.422;2024-02-14T10:44:10;6.30;81.60
9393;DHT22;4736;52.508;13.422;2024-02-14T10:47:17;6.30;81.60
9393;DHT22;4736;52.508;13.422;2024-02-14T10:50:28;6.20;81.80
9393;DHT22;4736;52.508;13.422;2024-02-14T10:53:33;6.30;82.00
9393;DHT22;4736;52.508;13.422;2024-02-14T10:56:39;6.30;82.10
9393;DHT22;4736;52.508;13.422;2024-02-14T10:59:45;6.50;82.00
9393;DHT22;4736;52.508;13.422;2024-02-14T11:02:49;6.60;82.00
9393;DHT22;4736;52.508;13.422;2024-02-14T11:05:53;6.60;81.90
9393;DHT22;4736;52.508;13.422;2024-02-14T11:09:04;6.50;82.00
9393;DHT22;4736;52.508;13.422;2024-02-14T11:12:10;6.70;82.20
9393;DHT22;4736;52.508;13.422;2024-02-14T11:15:17;6.90;81.30
9393;DHT22;4736;52.508;13.422;2024-02-14T11:18:25;7.00;81.50
9393;DHT22;4736;52.508;13.422;2024-02-14T11:21:31;7.00;80.80
9393;DHT22;4736;52.508;13.422;2024-02-14T11:24:39;7.00;81.20
9393;DHT22;4736;52.508;13.422;2024-02-14T11:27:45;7.00;81.60
9393;DHT22;4736;52.508;13.422;2024-02-14T11:30:48;7.20;81.20
9393;DHT22;4736;52.508;13.422;2024-02-14T11:33:51;7.20;81.10
9393;DHT22;4736;52.508;13.422;2024-02-14T11:36:55;7.40;81.10
9393;DHT22;4736;52.508;13.422;2024-02-14T11:40:00;7.40;81.20
9393;DHT22;4736;52.508;13.422;2024-02-14T11:43:04;7.50;80.70
9393;DHT22;4736;52.508;13.422;2024-02-14T11:46:07;7.40;81.10
9393;DHT22;4736;52.508;13.422;2024-02-14T11:49:11;7.50;80.60
9393;DHT22;4736;52.508;13.422;2024-02-14T11:52:15;7.40;80.60
9393;DHT22;4736;52.508;13.422;2024-02-14T11:55:27;7.40;80.70
9393;DHT22;4736;52.508;13.422;2024-02-14T11:58:30;7.50;80.60
9393;DHT22;4736;52.508;13.422;2024-02-14T12:01:37;7.40;80.80
9393;DHT22;4736;52.508;13.422;2024-02-14T12:04:40;7.50;81.10
9393;DHT22;4736;52.508;13.422;2024-02-14T12:07:44;7.50;81.10
9393;DHT22;4736;52.508;13.422;2024-02-14T12:10:51;7.60;81.00
9393;DHT22;4736;52.508;13.422;2024-02-14T12:13:56;7.60;81.20
9393;DHT22;4736;52.508;13.422;2024-02-14T12:17:00;7.60;81.20
9393;DHT22;4736;52.508;13.422;2024-02-14T12:20:11;7.60;81.10
9393;DHT22;4736;52.508;13.422;2024-02-14T12:23:16;7.50;81.60
9393;DHT22;4736;52.508;13.422;2024-02-14T12:26:21;7.60;81.70
9393;DHT22;4736;52.508;13.422;2024-02-14T12:29:25;7.60;81.60
9393;DHT22;4736;52.508;13.422;2024-02-14T12:32:28;7.60;81.60
9393;DHT22;4736;52.508;13.422;2024-02-14T12:35:34;7.60;81.90
9393;DHT22;4736;52.508;13.422;2024-02-14T12:38:37;7.70;81.70
9393;DHT22;4736;52.508;13.422;2024-02-14T12:41:42;7.60;82.00
9393;DHT22;4736;52.508;13.422;2024-02-14T12:44:45;7.70;82.40
9393;DHT22;4736;52.508;13.422;2024-02-14T12:47:48;7.70;82.10
9393;DHT22;4736;52.508;13.422;2024-02-14T12:50:52;7.80;81.70
9393;DHT22;4736;52.508;13.422;2024-02-14T12:53:55;7.90;81.80
9393;DHT22;4736;52.508;13.422;2024-02-14T12:57:00;7.90;81.80
9393;DHT22;4736;52.508;13.422;2024-02-14T13:00:04;8.00;81.50
9393;DHT22;4736;52.508;13.422;2024-02-14T13:03:10;8.00;81.60
9393;DHT22;4736;52.508;13.422;2024-02-14T13:06:17;8.00;81.70
9393;DHT22;4736;52.508;13.422;2024-02-14T13:09:21;8.00;81.90
9393;DHT22;4736;52.508;13.422;2024-02-14T13:12:25;8.00;82.10
9393;DHT22;4736;52.508;13.422;2024-02-14T13:15:29;8.10;82.00
9393;DHT22;4736;52.508;13.422;2024-02-14T13:18:32;8.10;82.10
9393;DHT22;4736;52.508;13.422;2024-02-14T13:21:37;8.10;82.30
9393;DHT22;4736;52.508;13.422;2024-02-14T13:24:42;8.20;82.30
9393;DHT22;4736;52.508;13.422;2024-02-14T13:27:47;8.20;82.40
9393;DHT22;4736;52.508;13.422;2024-02-14T13:30:51;8.20;82.50
9393;DHT22;4736;52.508;13.422;2024-02-14T13:33:57;8.10;82.70
9393;DHT22;4736;52.508;13.422;2024-02-14T13:37:00;8.10;82.80
9393;DHT22;4736;52.508;13.422;2024-02-14T13:40:05;8.20;82.70
9393;DHT22;4736;52.508;13.422;2024-02-14T13:43:14;8.10;83.10
9393;DHT22;4736;52.508;13.422;2024-02-14T13:46:19;8.20;83.10
9393;DHT22;4736;52.508;13.422;2024-02-14T13:49:23;8.10;83.60
9393;DHT22;4736;52.508;13.422;2024-02-14T13:52:26;8.10;83.80
9393;DHT22;4736;52.508;13.422;2024-02-14T13:55:29;8.10;83.90
9393;DHT22;4736;52.508;13.422;2024-02-14T13:58:34;8.10;84.00
9393;DHT22;4736;52.508;13.422;2024-02-14T14:01:40;8.10;84.40
9393;DHT22;4736;52.508;13.422;2024-02-14T14:04:43;8.10;84.40
9393;DHT22;4736;52.508;13.422;2024-02-14T14:07:46;8.10;84.50
9393;DHT22;4736;52.508;13.422;2024-02-14T14:10:59;8.20;84.70
9393;DHT22;4736;52.508;13.422;2024-02-14T14:14:04;8.30;84.40
9393;DHT22;4736;52.508;13.422;2024-02-14T14:17:07;8.40;84.30
9393;DHT22;4736;52.508;13.422;2024-02-14T14:20:11;8.40;84.20
9393;DHT22;4736;52.508;13.422;2024-02-14T14:23:14;8.40;84.30
9393;DHT22;4736;52.508;13.422;2024-02-14T14:26:17;8.40;84.40
9393;DHT22;4736;52.508;13.422;2024-02-14T14:29:23;8.40;84.40
9393;DHT22;4736;52.508;13.422;2024-02-14T14:32:26;8.50;84.30
9393;DHT22;4736;52.508;13.422;2024-02-14T14:35:29;8.50;84.40
9393;DHT22;4736;52.508;13.422;2024-02-14T14:38:35;8.50;84.40
9393;DHT22;4736;52.508;13.422;2024-02-14T14:41:38;8.50;84.40
9393;DHT22;4736;52.508;13.422;2024-02-14T14:44:45;8.50;84.40
9393;DHT22;4736;52.508;13.422;2024-02-14T14:47:48;8.50;84.60
9393;DHT22;4736;52.508;13.422;2024-02-14T14:50:51;8.40;84.80
9393;DHT22;4736;52.508;13.422;2024-02-14T14:53:55;8.40;84.80
9393;DHT22;4736;52.508;13.422;2024-02-14T14:56:58;8.50;84.80
9393;DHT22;4736;52.508;13.422;2024-02-14T15:00:04;8.60;84.80
9393;DHT22;4736;52.508;13.422;2024-02-14T15:03:07;8.60;84.40
9393;DHT22;4736;52.508;13.422;2024-02-14T15:06:11;8.60;84.10
9393;DHT22;4736;52.508;13.422;2024-02-14T15:09:15;8.60;84.30
9393;DHT22;4736;52.508;13.422;2024-02-14T15:12:18;8.60;84.40
9393;DHT22;4736;52.508;13.422;2024-02-14T15:15:27;8.60;84.70
9393;DHT22;4736;52.508;13.422;2024-02-14T15:18:30;8.60;84.70
9393;DHT22;4736;52.508;13.422;2024-02-14T15:21:34;8.60;84.90
9393;DHT22;4736;52.508;13.422;2024-02-14T15:24:37;8.60;84.70
9393;DHT22;4736;52.508;13.422;2024-02-14T15:27:42;8.60;84.90
9393;DHT22;4736;52.508;13.422;2024-02-14T15:30:57;8.70;84.50
9393;DHT22;4736;52.508;13.422;2024-02-14T15:34:18;8.80;84.30
9393;DHT22;4736;52.508;13.422;2024-02-14T15:37:22;8.80;84.10
9393;DHT22;4736;52.508;13.422;2024-02-14T15:40:25;8.80;84.00
9393;DHT22;4736;52.508;13.422;2024-02-14T15:43:29;8.80;84.00
9393;DHT22;4736;52.508;13.422;2024-02-14T15:46:36;8.80;84.00
9393;DHT22;4736;52.508;13.422;2024-02-14T15:49:40;8.80;84.00
9393;DHT22;4736;52.508;13.422;2024-02-14T15:52:43;8.80;84.00
9393;DHT22;4736;52.508;13.422;2024-02-14T15:55:46;8.90;83.90
9393;DHT22;4736;52.508;13.422;2024-02-14T15:58:50;8.90;83.80
9393;DHT22;4736;52.508;13.422;2024-02-14T16:01:54;8.90;83.70
9393;DHT22;4736;52.508;13.422;2024-02-14T16:04:58;8.90;83.90
9393;DHT22;4736;52.508;13.422;2024-02-14T16:08:01;8.90;83.80
9393;DHT22;4736;52.508;13.422;2024-02-14T16:11:04;8.90;83.70
9393;DHT22;4736;52.508;13.422;2024-02-14T16:14:07;8.90;83.70
9393;DHT22;4736;52.508;13.422;2024-02-14T16:17:12;8.90;83.50
9393;DHT22;4736;52.508;13.422;2024-02-14T16:20:15;8.90;83.60
9393;DHT22;4736;52.508;13.422;2024-02-14T16:23:24;8.90;83.50
9393;DHT22;4736;52.508;13.422;2024-02-14T16:26:27;8.90;83.60
9393;DHT22;4736;52.508;13.422;2024-02-14T16:29:32;9.00;83.50
9393;DHT22;4736;52.508;13.422;2024-02-14T16:32:44;9.00;83.10
9393;DHT22;4736;52.508;13.422;2024-02-14T16:35:49;8.90;83.20
9393;DHT22;4736;52.508;13.422;2024-02-14T16:38:52;9.00;83.30
9393;DHT22;4736;52.508;13.422;2024-02-14T16:41:56;9.00;83.20
9393;DHT22;4736;52.508;13.422;2024-02-14T16:44:59;9.00;83.00
9393;DHT22;4736;52.508;13.422;2024-02-14T16:48:05;9.00;82.80
9393;DHT22;4736;52.508;13.422;2024-02-14T16:51:08;9.00;83.00
9393;DHT22;4736;52.508;13.422;2024-02-14T16:54:19;9.00;83.10
9393;DHT22;4736;52.508;13.422;2024-02-14T16:57:24;9.00;83.00
9393;DHT22;4736;52.508;13.422;2024-02-14T17:00:29;9.00;83.20
9393;DHT22;4736;52.508;13.422;2024-02-14T17:03:33;8.90;83.10
9393;DHT22;4736;52.508;13.422;2024-02-14T17:06:47;8.90;83.20
9393;DHT22;4736;52.508;13.422;2024-02-14T17:09:50;8.90;83.30
9393;DHT22;4736;52.508;13.422;2024-02-14T17:12:54;8.90;83.30
9393;DHT22;4736;52.508;13.422;2024-02-14T17:15:57;9.00;82.80
9393;DHT22;4736;52.508;13.422;2024-02-14T17:19:03;9.00;82.70
9393;DHT22;4736;52.508;13.422;2024-02-14T17:22:07;9.10;82.40
9393;DHT22;4736;52.508;13.422;2024-02-14T17:25:25;9.00;82.30
9393;DHT22;4736;52.508;13.422;2024-02-14T17:28:28;9.00;82.40
9393;DHT22;4736;52.508;13.422;2024-02-14T17:31:31;9.00;82.60
9393;DHT22;4736;52.508;13.422;2024-02-14T17:34:36;9.00;82.50
9393;DHT22;4736;52.508;13.422;2024-02-14T17:37:40;9.00;82.50
9393;DHT22;4736;52.508;13.422;2024-02-14T17:40:43;9.00;82.60
9393;DHT22;4736;52.508;13.422;2024-02-14T17:43:47;9.00;82.50
9393;DHT22;4736;52.508;13.422;2024-02-14T17:46:50;9.00;82.40
9393;DHT22;4736;52.508;13.422;2024-02-14T17:49:55;9.00;82.50
9393;DHT22;4736;52.508;13.422;2024-02-14T17:52:58;9.00;82.50
9393;DHT22;4736;52.508;13.422;2024-02-14T17:56:01;9.00;82.10
9393;DHT22;4736;52.508;13.422;2024-02-14T17:59:05;9.20;82.00
9393;DHT22;4736;52.508;13.422;2024-02-14T18:02:08;9.20;81.60
9393;DHT22;4736;52.508;13.422;2024-02-14T18:05:13;9.10;81.90
9393;DHT22;4736;52.508;13.422;2024-02-14T18:08:18;9.00;82.10
9393;DHT22;4736;52.508;13.422;2024-02-14T18:11:21;9.00;82.20
9393;DHT22;4736;52.508;13.422;2024-02-14T18:14:24;9.00;82.40
9393;DHT22;4736;52.508;13.422;2024-02-14T18:17:27;9.10;82.10
9393;DHT22;4736;52.508;13.422;2024-02-14T18:20:31;9.10;82.10
9393;DHT22;4736;52.508;13.422;2024-02-14T18:23:36;9.20;81.60
9393;DHT22;4736;52.508;13.422;2024-02-14T18:26:40;9.20;81.50
9393;DHT22;4736;52.508;13.422;2024-02-14T18:29:43;9.20;81.50
9393;DHT22;4736;52.508;13.422;2024-02-14T18:32:47;9.20;81.20
9393;DHT22;4736;52.508;13.422;2024-02-14T18:35:52;9.20;81.20
9393;DHT22;4736;52.508;13.422;2024-02-14T18:38:56;9.20;81.40
9393;DHT22;4736;52.508;13.422;2024-02-14T18:41:59;9.20;81.30
9393;DHT22;4736;52.508;13.422;2024-02-14T18:45:03;9.40;80.90
9393;DHT22;4736;52.508;13.422;2024-02-14T18:48:08;9.30;80.60
9393;DHT22;4736;52.508;13.422;2024-02-14T18:51:15;9.20;80.90
9393;DHT22;4736;52.508;13.422;2024-02-14T18:54:18;9.20;80.90
9393;DHT22;4736;52.508;13.422;2024-02-14T18:57:21;9.20;80.80
9393;DHT22;4736;52.508;13.422;2024-02-14T19:00:25;9.30;80.70
9393;DHT22;4736;52.508;13.422;2024-02-14T19:03:31;9.30;80.50
9393;DHT22;4736;52.508;13.422;2024-02-14T19:06:36;9.30;80.50
9393;DHT22;4736;52.508;13.422;2024-02-14T19:09:40;9.40;80.00
9393;DHT22;4736;52.508;13.422;2024-02-14T19:12:43;9.40;80.00
9393;DHT22;4736;52.508;13.422;2024-02-14T19:15:46;9.40;79.90
9393;DHT22;4736;52.508;13.422;2024-02-14T19:18:50;9.40;80.00
9393;DHT22;4736;52.508;13.422;2024-02-14T19:21:55;9.30;80.30
9393;DHT22;4736;52.508;13.422;2024-02-14T19:24:59;9.30;80.20
9393;DHT22;4736;52.508;13.422;2024-02-14T19:28:02;9.30;80.00
9393;DHT22;4736;52.508;13.422;2024-02-14T19:31:06;9.40;79.70
9393;DHT22;4736;52.508;13.422;2024-02-14T19:34:09;9.50;79.30
9393;DHT22;4736;52.508;13.422;2024-02-14T19:37:13;9.40;79.30
9393;DHT22;4736;52.508;13.422;2024-02-14T19:40:17;9.40;79.20
9393;DHT22;4736;52.508;13.422;2024-02-14T19:43:20;9.50;79.00
9393;DHT22;4736;52.508;13.422;2024-02-14T19:46:35;9.50;78.90
9393;DHT22;4736;52.508;13.422;2024-02-14T19:49:39;9.50;78.90
9393;DHT22;4736;52.508;13.422;2024-02-14T19:52:44;9.50;78.90
9393;DHT22;4736;52.508;13.422;2024-02-14T19:55:48;9.50;78.80
9393;DHT22;4736;52.508;13.422;2024-02-14T19:58:51;9.50;78.80
9393;DHT22;4736;52.508;13.422;2024-02-14T20:01:54;9.50;78.70
9393;DHT22;4736;52.508;13.422;2024-02-14T20:04:57;9.50;78.60
9393;DHT22;4736;52.508;13.422;2024-02-14T20:08:05;9.60;78.70